createdAt,value
2017-04-30T00:00:31.280Z,74.10
2017-04-30T00:02:59.004Z,73.80
2017-04-30T00:05:27.468Z,74.10
2017-04-30T00:07:55.522Z,74.10
2017-04-30T00:10:23.263Z,74.30
2017-04-30T00:12:50.984Z,74.40
2017-04-30T00:15:19.512Z,74.40
2017-04-30T00:17:47.241Z,74.00
2017-04-30T00:20:15.707Z,73.90
2017-04-30T00:22:44.220Z,74.00
2017-04-30T00:25:11.944Z,74.00
2017-04-30T00:27:39.672Z,74.00
2017-04-30T00:30:07.464Z,74.10
2017-04-30T00:32:35.197Z,74.00
2017-04-30T00:35:02.932Z,73.60
2017-04-30T00:37:31.274Z,73.80
2017-04-30T00:39:59.001Z,73.80
2017-04-30T00:42:26.720Z,73.50
2017-04-30T00:44:56.309Z,73.30
2017-04-30T00:47:24.042Z,73.00
2017-04-30T00:49:51.778Z,72.80
2017-04-30T00:52:19.909Z,72.70
2017-04-30T00:54:47.642Z,72.90
2017-04-30T00:57:15.369Z,72.70
2017-04-30T00:59:44.231Z,72.80
2017-04-30T01:02:12.720Z,72.50
2017-04-30T01:04:41.181Z,72.50
2017-04-30T01:07:09.668Z,72.50
2017-04-30T01:09:37.388Z,72.50
2017-04-30T01:12:05.105Z,72.30
2017-04-30T01:14:33.639Z,72.60
2017-04-30T01:17:01.387Z,73.10
2017-04-30T01:19:29.117Z,72.70
2017-04-30T01:21:57.984Z,72.60
2017-04-30T01:24:25.710Z,72.40
2017-04-30T01:26:53.450Z,72.30
2017-04-30T01:29:22.117Z,72.30
2017-04-30T01:31:50.580Z,72.60
2017-04-30T01:34:18.304Z,72.40
2017-04-30T01:36:46.057Z,72.50
2017-04-30T01:39:13.799Z,72.60
2017-04-30T01:41:41.532Z,72.70
2017-04-30T01:44:09.603Z,72.40
2017-04-30T01:46:37.334Z,72.60
2017-04-30T01:49:05.059Z,72.60
2017-04-30T01:51:33.863Z,72.80
2017-04-30T01:54:01.589Z,72.50
2017-04-30T01:56:30.048Z,72.90
2017-04-30T01:58:57.798Z,72.60
2017-04-30T02:01:26.398Z,72.50
2017-04-30T02:03:54.112Z,72.70
2017-04-30T02:06:21.959Z,72.80
2017-04-30T02:08:50.419Z,72.60
2017-04-30T02:11:18.143Z,72.80
2017-04-30T02:13:45.893Z,72.90
2017-04-30T02:16:13.640Z,73.00
2017-04-30T02:18:41.368Z,73.10
2017-04-30T02:21:09.180Z,73.70
2017-04-30T02:23:36.900Z,73.80
2017-04-30T02:26:04.620Z,73.70
2017-04-30T02:28:32.389Z,73.50
2017-04-30T02:31:00.128Z,73.70
2017-04-30T02:33:27.856Z,74.10
2017-04-30T02:35:56.637Z,73.70
2017-04-30T02:38:39.252Z,74.00
2017-04-30T02:41:07.319Z,73.90
2017-04-30T02:43:35.065Z,74.20
2017-04-30T02:46:02.787Z,74.00
2017-04-30T02:48:30.535Z,73.90
2017-04-30T02:50:58.272Z,74.20
2017-04-30T02:53:26.036Z,74.00
2017-04-30T02:55:54.316Z,74.00
2017-04-30T02:58:22.060Z,74.00
2017-04-30T03:00:49.852Z,74.00
2017-04-30T03:03:18.532Z,74.60
2017-04-30T03:05:46.271Z,74.60
2017-04-30T03:08:14.000Z,74.60
2017-04-30T03:10:41.883Z,74.80
2017-04-30T03:13:09.620Z,74.80
2017-04-30T03:15:37.349Z,75.20
2017-04-30T03:18:05.118Z,75.50
2017-04-30T03:20:33.599Z,75.50
2017-04-30T03:23:02.061Z,75.60
2017-04-30T03:25:30.148Z,75.80
2017-04-30T03:27:58.609Z,76.00
2017-04-30T03:30:26.336Z,76.10
2017-04-30T03:32:54.564Z,76.30
2017-04-30T03:35:22.288Z,76.30
2017-04-30T03:38:02.277Z,76.30
2017-04-30T03:40:41.780Z,76.40
2017-04-30T03:43:21.894Z,76.40
2017-04-30T03:46:01.460Z,76.40
2017-04-30T03:48:42.059Z,76.30
2017-04-30T03:51:21.592Z,76.20
2017-04-30T03:54:01.263Z,76.00
2017-04-30T03:56:41.724Z,76.10
2017-04-30T03:59:22.244Z,76.20
2017-04-30T04:02:01.971Z,75.80
2017-04-30T04:04:42.410Z,76.00
2017-04-30T04:07:22.718Z,75.80
2017-04-30T04:10:02.693Z,75.80
2017-04-30T04:12:42.344Z,75.80
2017-04-30T04:15:22.728Z,76.10
2017-04-30T04:18:02.336Z,76.00
2017-04-30T04:20:42.005Z,76.00
2017-04-30T04:23:21.598Z,76.10
2017-04-30T04:26:01.284Z,76.40
2017-04-30T04:28:41.624Z,76.40
2017-04-30T04:31:21.411Z,76.30
2017-04-30T04:34:01.061Z,76.50
2017-04-30T04:36:41.589Z,76.20
2017-04-30T04:39:22.108Z,76.10
2017-04-30T04:42:01.992Z,76.00
2017-04-30T04:44:42.316Z,76.20
2017-04-30T04:47:21.936Z,76.20
2017-04-30T04:50:01.527Z,76.20
2017-04-30T04:52:41.117Z,76.20
2017-04-30T04:55:20.712Z,76.20
2017-04-30T04:58:00.370Z,75.60
2017-04-30T05:00:40.644Z,75.40
2017-04-30T05:03:21.682Z,75.20
2017-04-30T05:06:01.402Z,75.30
2017-04-30T05:08:41.789Z,75.30
2017-04-30T05:11:21.416Z,75.30
2017-04-30T05:14:01.090Z,74.90
2017-04-30T05:16:41.431Z,74.40
2017-04-30T05:19:21.382Z,74.60
2017-04-30T05:22:00.860Z,74.00
2017-04-30T05:24:40.599Z,74.20
2017-04-30T05:27:20.270Z,73.60
2017-04-30T05:30:00.153Z,73.40
2017-04-30T05:32:39.793Z,73.70
2017-04-30T05:35:19.745Z,73.70
2017-04-30T05:37:59.365Z,73.10
2017-04-30T05:40:39.071Z,72.50
2017-04-30T05:43:18.618Z,72.40
2017-04-30T05:45:59.137Z,71.70
2017-04-30T05:48:38.656Z,71.60
2017-04-30T05:51:18.534Z,72.00
2017-04-30T05:53:58.841Z,72.10
2017-04-30T05:56:38.838Z,71.60
2017-04-30T05:59:19.148Z,70.80
2017-04-30T06:01:59.030Z,69.90
2017-04-30T06:04:38.535Z,70.30
2017-04-30T06:07:19.041Z,70.10
2017-04-30T06:09:59.392Z,69.30
2017-04-30T06:12:39.173Z,69.70
2017-04-30T06:15:18.771Z,69.60
2017-04-30T06:17:59.140Z,68.90
2017-04-30T06:20:38.684Z,68.50
2017-04-30T06:23:18.424Z,68.50
2017-04-30T06:25:57.979Z,68.40
2017-04-30T06:28:38.516Z,68.50
2017-04-30T06:31:18.171Z,68.10
2017-04-30T06:33:57.764Z,67.90
2017-04-30T06:36:37.270Z,67.00
2017-04-30T06:39:18.542Z,66.50
2017-04-30T06:41:58.869Z,67.20
2017-04-30T06:44:38.863Z,67.10
2017-04-30T06:47:18.604Z,67.40
2017-04-30T06:50:00.483Z,66.90
2017-04-30T06:52:40.249Z,66.70
2017-04-30T06:55:19.906Z,65.10
2017-04-30T06:57:59.497Z,65.10
2017-04-30T07:00:39.512Z,64.70
2017-04-30T07:03:19.088Z,64.50
2017-04-30T07:05:58.748Z,64.20
2017-04-30T07:08:38.466Z,64.30
2017-04-30T07:11:19.362Z,64.00
2017-04-30T07:13:58.908Z,63.80
2017-04-30T07:16:40.014Z,64.00
2017-04-30T07:19:19.622Z,63.50
2017-04-30T07:21:59.988Z,63.20
2017-04-30T07:24:39.630Z,62.60
2017-04-30T07:27:20.516Z,63.20
2017-04-30T07:30:00.931Z,63.10
2017-04-30T07:32:40.441Z,62.60
2017-04-30T07:35:20.161Z,62.00
2017-04-30T07:38:00.408Z,62.10
2017-04-30T07:40:40.748Z,61.90
2017-04-30T07:43:08.501Z,61.10
2017-04-30T07:45:36.230Z,60.90
2017-04-30T07:48:03.963Z,61.00
2017-04-30T07:50:32.440Z,59.20
2017-04-30T07:53:01.113Z,59.70
2017-04-30T07:55:29.936Z,60.80
2017-04-30T07:57:57.712Z,60.10
2017-04-30T08:00:25.876Z,60.00
2017-04-30T08:02:53.600Z,59.80
2017-04-30T08:05:21.364Z,60.10
2017-04-30T08:07:49.337Z,60.40
2017-04-30T08:10:17.808Z,60.20
2017-04-30T08:12:45.539Z,59.50
2017-04-30T08:15:13.848Z,59.30
2017-04-30T08:17:41.577Z,58.40
2017-04-30T08:20:09.320Z,59.00
2017-04-30T08:22:37.047Z,60.00
2017-04-30T08:25:05.516Z,59.40
2017-04-30T08:27:33.308Z,59.00
2017-04-30T08:30:01.034Z,58.50
2017-04-30T08:32:28.784Z,57.30
2017-04-30T08:34:56.508Z,56.90
2017-04-30T08:37:24.251Z,57.40
2017-04-30T08:39:52.447Z,56.40
2017-04-30T08:42:20.185Z,56.90
2017-04-30T08:44:48.661Z,57.60
2017-04-30T08:47:17.124Z,55.50
2017-04-30T08:49:44.857Z,56.60
2017-04-30T08:52:12.677Z,56.50
2017-04-30T08:54:41.161Z,56.00
2017-04-30T08:57:09.663Z,56.50
2017-04-30T08:59:37.452Z,55.00
2017-04-30T09:02:05.200Z,55.40
2017-04-30T09:04:32.929Z,56.70
2017-04-30T09:07:01.437Z,56.80
2017-04-30T09:09:29.184Z,57.20
2017-04-30T09:11:56.915Z,56.30
2017-04-30T09:14:24.695Z,57.60
2017-04-30T09:16:53.165Z,57.20
2017-04-30T09:19:20.935Z,55.40
2017-04-30T09:21:50.376Z,54.50
2017-04-30T09:24:18.104Z,55.60
2017-04-30T09:26:46.584Z,56.00
2017-04-30T09:29:15.802Z,56.10
2017-04-30T09:31:43.548Z,55.40
2017-04-30T09:34:12.027Z,55.00
2017-04-30T09:36:41.064Z,55.80
2017-04-30T09:39:08.801Z,54.80
2017-04-30T09:41:36.543Z,54.60
2017-04-30T09:44:05.955Z,53.90
2017-04-30T09:46:34.434Z,54.20
2017-04-30T09:49:02.908Z,54.50
2017-04-30T09:51:32.308Z,55.10
2017-04-30T09:54:00.048Z,54.00
2017-04-30T09:56:27.782Z,56.10
2017-04-30T09:58:55.574Z,55.50
2017-04-30T10:01:23.348Z,52.80
2017-04-30T10:03:51.114Z,54.20
2017-04-30T10:06:19.303Z,52.40
2017-04-30T10:08:47.784Z,52.90
2017-04-30T10:11:16.267Z,53.70
2017-04-30T10:13:44.764Z,53.10
2017-04-30T10:16:12.522Z,53.90
2017-04-30T10:18:41.025Z,54.20
2017-04-30T10:21:08.906Z,53.20
2017-04-30T10:23:36.636Z,52.10
2017-04-30T10:26:04.368Z,52.50
2017-04-30T10:28:32.805Z,53.60
2017-04-30T10:31:00.562Z,53.30
2017-04-30T10:33:28.325Z,53.80
2017-04-30T10:35:56.110Z,54.10
2017-04-30T10:38:23.896Z,53.90
2017-04-30T10:40:51.739Z,52.70
2017-04-30T10:43:19.533Z,52.70
2017-04-30T10:45:48.672Z,53.10
2017-04-30T10:48:16.420Z,53.30
2017-04-30T10:50:44.933Z,54.30
2017-04-30T10:53:12.672Z,53.60
2017-04-30T10:55:40.428Z,53.90
2017-04-30T10:58:10.548Z,53.90
2017-04-30T11:00:38.330Z,52.90
2017-04-30T11:03:06.069Z,54.40
2017-04-30T11:05:34.592Z,54.80
2017-04-30T11:08:02.347Z,52.90
2017-04-30T11:10:30.084Z,53.40
2017-04-30T11:12:58.888Z,52.50
2017-04-30T11:15:26.621Z,54.00
2017-04-30T11:17:54.358Z,52.00
2017-04-30T11:20:23.174Z,51.00
2017-04-30T11:22:51.652Z,52.40
2017-04-30T11:25:19.389Z,52.60
2017-04-30T11:27:47.393Z,53.00
2017-04-30T11:30:15.868Z,51.70
2017-04-30T11:32:43.613Z,50.20
2017-04-30T11:35:11.625Z,49.30
2017-04-30T11:37:39.372Z,50.90
2017-04-30T11:40:07.884Z,49.70
2017-04-30T11:42:35.812Z,50.10
2017-04-30T11:45:03.563Z,50.50
2017-04-30T11:47:31.297Z,49.60
2017-04-30T11:49:59.921Z,48.90
2017-04-30T11:52:28.429Z,49.10
2017-04-30T11:54:56.167Z,49.30
2017-04-30T11:57:25.469Z,49.20
2017-04-30T11:59:53.243Z,50.00
2017-04-30T12:02:21.817Z,50.80
2017-04-30T12:04:50.375Z,49.00
2017-04-30T12:07:18.106Z,50.30
2017-04-30T12:09:45.868Z,50.10
2017-04-30T12:12:13.630Z,49.50
2017-04-30T12:14:41.386Z,49.40
2017-04-30T12:17:09.149Z,49.90
2017-04-30T12:19:37.301Z,50.30
2017-04-30T12:22:05.785Z,49.90
2017-04-30T12:24:34.264Z,49.90
2017-04-30T12:27:02.778Z,49.00
2017-04-30T12:29:30.512Z,49.40
2017-04-30T12:31:59.010Z,48.10
2017-04-30T12:34:27.252Z,49.00
2017-04-30T12:36:55.731Z,48.30
2017-04-30T12:39:23.460Z,48.10
2017-04-30T12:41:51.232Z,48.40
2017-04-30T12:44:18.960Z,48.70
2017-04-30T12:46:46.714Z,47.60
2017-04-30T12:49:15.625Z,48.70
2017-04-30T12:51:43.348Z,47.20
2017-04-30T12:54:11.824Z,46.00
2017-04-30T12:56:40.340Z,44.00
2017-04-30T12:59:08.080Z,44.30
2017-04-30T13:01:36.582Z,44.50
2017-04-30T13:04:04.732Z,46.30
2017-04-30T13:06:33.212Z,44.90
2017-04-30T13:09:01.688Z,46.30
2017-04-30T13:11:30.216Z,46.00
2017-04-30T13:13:57.986Z,46.40
2017-04-30T13:16:25.733Z,45.50
2017-04-30T13:18:53.509Z,44.30
2017-04-30T13:21:21.255Z,41.90
2017-04-30T13:23:49.034Z,41.00
2017-04-30T13:26:16.950Z,39.00
2017-04-30T13:28:44.687Z,37.90
2017-04-30T13:31:12.488Z,38.60
2017-04-30T13:33:40.963Z,38.30
2017-04-30T13:36:09.452Z,39.90
2017-04-30T13:38:37.920Z,38.80
2017-04-30T13:41:05.684Z,37.40
2017-04-30T13:43:33.416Z,35.80
2017-04-30T13:46:01.288Z,36.70
2017-04-30T13:48:29.052Z,36.70
2017-04-30T13:50:58.179Z,35.60
2017-04-30T13:53:25.948Z,34.00
2017-04-30T13:55:54.480Z,34.80
2017-04-30T13:58:22.234Z,34.40
2017-04-30T14:00:49.975Z,32.90
2017-04-30T14:03:17.757Z,34.30
2017-04-30T14:05:45.483Z,33.80
2017-04-30T14:08:13.963Z,33.80
2017-04-30T14:10:43.053Z,32.40
2017-04-30T14:13:10.790Z,31.40
2017-04-30T14:15:38.515Z,31.20
2017-04-30T14:18:07.168Z,29.80
2017-04-30T14:20:35.637Z,31.30
2017-04-30T14:23:03.372Z,31.30
2017-04-30T14:25:31.382Z,31.00
2017-04-30T14:27:59.870Z,30.50
2017-04-30T14:30:28.377Z,31.70
2017-04-30T14:32:57.353Z,31.50
2017-04-30T14:35:25.087Z,30.30
2017-04-30T14:37:53.688Z,29.50
2017-04-30T14:40:22.573Z,30.70
2017-04-30T14:42:51.042Z,32.10
2017-04-30T14:45:18.764Z,31.40
2017-04-30T14:47:46.978Z,30.20
2017-04-30T14:50:14.712Z,31.10
2017-04-30T14:52:42.876Z,30.50
2017-04-30T14:55:10.632Z,32.10
2017-04-30T14:57:38.361Z,33.50
2017-04-30T15:00:06.858Z,33.20
2017-04-30T15:02:35.001Z,31.60
2017-04-30T15:05:03.554Z,31.70
2017-04-30T15:07:31.291Z,31.70
2017-04-30T15:09:59.016Z,31.20
2017-04-30T15:12:27.491Z,30.30
2017-04-30T15:14:55.960Z,30.90
2017-04-30T15:17:23.683Z,30.20
2017-04-30T15:19:51.436Z,30.20
2017-04-30T15:22:19.164Z,30.00
2017-04-30T15:24:47.633Z,30.00
2017-04-30T15:27:15.375Z,30.00
2017-04-30T15:29:43.122Z,30.60
2017-04-30T15:32:11.864Z,31.70
2017-04-30T15:34:40.323Z,31.50
2017-04-30T15:37:08.047Z,32.30
2017-04-30T15:39:35.768Z,32.80
2017-04-30T15:42:04.248Z,32.40
2017-04-30T15:44:32.861Z,33.00
2017-04-30T15:47:00.659Z,32.60
2017-04-30T15:49:28.417Z,31.90
2017-04-30T15:51:56.183Z,31.80
2017-04-30T15:54:24.681Z,31.20
2017-04-30T15:56:52.440Z,30.70
2017-04-30T15:59:20.210Z,31.70
2017-04-30T16:01:47.971Z,31.20
2017-04-30T16:04:15.716Z,32.50
2017-04-30T16:06:43.716Z,33.00
2017-04-30T16:09:11.443Z,32.90
2017-04-30T16:11:39.187Z,32.90
2017-04-30T16:14:06.956Z,32.50
2017-04-30T16:16:34.700Z,33.10
2017-04-30T16:19:02.447Z,32.30
2017-04-30T16:21:31.901Z,32.60
2017-04-30T16:23:59.629Z,32.60
2017-04-30T16:26:27.359Z,33.70
2017-04-30T16:28:55.153Z,34.10
2017-04-30T16:31:22.876Z,34.10
2017-04-30T16:33:50.620Z,35.20
2017-04-30T16:36:18.490Z,34.60
2017-04-30T16:38:46.219Z,33.90
2017-04-30T16:41:13.950Z,33.60
2017-04-30T16:43:41.692Z,33.50
2017-04-30T16:46:09.449Z,35.00
2017-04-30T16:48:37.202Z,33.90
2017-04-30T16:51:04.978Z,33.60
2017-04-30T16:53:33.121Z,34.70
2017-04-30T16:56:00.869Z,36.50
2017-04-30T16:58:28.708Z,38.40
2017-04-30T17:00:57.194Z,39.10
2017-04-30T17:03:25.672Z,39.90
2017-04-30T17:05:54.149Z,40.40
2017-04-30T17:08:22.637Z,40.90
2017-04-30T17:10:51.100Z,41.10
2017-04-30T17:13:19.287Z,41.30
2017-04-30T17:15:47.805Z,42.00
2017-04-30T17:18:15.532Z,42.00
2017-04-30T17:20:44.026Z,41.90
2017-04-30T17:23:11.778Z,42.00
2017-04-30T17:25:40.253Z,42.30
2017-04-30T17:28:08.732Z,42.30
2017-04-30T17:30:36.469Z,42.30
2017-04-30T17:33:04.213Z,42.10
2017-04-30T17:35:31.975Z,42.50
2017-04-30T17:37:59.752Z,43.20
2017-04-30T17:40:27.510Z,43.30
2017-04-30T17:42:55.271Z,43.10
2017-04-30T17:45:23.017Z,43.20
2017-04-30T17:47:50.752Z,43.10
2017-04-30T17:50:19.451Z,42.90
2017-04-30T17:52:47.197Z,43.20
2017-04-30T17:55:15.680Z,43.50
2017-04-30T17:57:44.225Z,43.50
2017-04-30T18:00:11.948Z,43.60
2017-04-30T18:02:39.684Z,43.60
2017-04-30T18:05:08.166Z,43.90
2017-04-30T18:07:36.644Z,44.20
2017-04-30T18:10:05.121Z,43.90
2017-04-30T18:12:34.088Z,44.30
2017-04-30T18:15:01.827Z,44.40
2017-04-30T18:17:29.957Z,44.60
2017-04-30T18:19:57.704Z,45.00
2017-04-30T18:22:25.921Z,44.60
2017-04-30T18:24:54.298Z,45.00
2017-04-30T18:27:22.085Z,44.70
2017-04-30T18:29:49.856Z,45.30
2017-04-30T18:32:17.616Z,45.50
2017-04-30T18:34:45.361Z,45.50
2017-04-30T18:37:13.140Z,45.70
2017-04-30T18:39:40.912Z,45.80
2017-04-30T18:42:08.681Z,46.20
2017-04-30T18:44:36.416Z,46.10
2017-04-30T18:47:04.175Z,46.00
2017-04-30T18:49:31.913Z,45.90
2017-04-30T18:52:00.383Z,46.20
2017-04-30T18:54:28.862Z,46.50
2017-04-30T18:56:57.379Z,46.80
2017-04-30T18:59:27.353Z,46.80
2017-04-30T19:01:55.080Z,47.10
2017-04-30T19:04:22.804Z,47.10
2017-04-30T19:06:50.633Z,47.40
2017-04-30T19:09:18.385Z,47.70
2017-04-30T19:11:46.119Z,47.60
2017-04-30T19:14:13.844Z,48.70
2017-04-30T19:16:41.574Z,49.00
2017-04-30T19:19:09.334Z,49.80
2017-04-30T19:21:37.139Z,51.20
2017-04-30T19:24:04.910Z,52.00
2017-04-30T19:26:33.509Z,53.00
2017-04-30T19:29:01.232Z,54.20
2017-04-30T19:31:29.011Z,55.10
2017-04-30T19:33:56.813Z,56.30
2017-04-30T19:36:24.584Z,57.20
2017-04-30T19:38:52.375Z,57.70
2017-04-30T19:41:20.129Z,57.70
2017-04-30T19:43:47.902Z,58.10
2017-04-30T19:46:15.637Z,59.00
2017-04-30T19:48:43.368Z,59.70
2017-04-30T19:51:12.223Z,60.00
2017-04-30T19:53:39.985Z,60.30
2017-04-30T19:56:08.492Z,61.50
2017-04-30T19:58:36.216Z,62.50
2017-04-30T20:01:03.956Z,62.10
2017-04-30T20:03:31.681Z,62.20
2017-04-30T20:06:00.159Z,62.60
2017-04-30T20:08:27.887Z,62.60
2017-04-30T20:10:55.614Z,63.10
2017-04-30T20:13:23.343Z,63.50
2017-04-30T20:15:51.129Z,63.70
2017-04-30T20:18:19.596Z,63.50
2017-04-30T20:20:47.319Z,63.60
2017-04-30T20:23:15.048Z,63.80
2017-04-30T20:25:42.764Z,64.00
2017-04-30T20:28:10.498Z,63.90
2017-04-30T20:30:38.222Z,64.20
2017-04-30T20:33:06.699Z,63.90
2017-04-30T20:35:35.173Z,64.30
2017-04-30T20:38:02.906Z,64.20
2017-04-30T20:40:31.007Z,64.20
2017-04-30T20:42:58.732Z,64.20
2017-04-30T20:45:26.506Z,64.50
2017-04-30T20:47:54.245Z,64.60
2017-04-30T20:50:21.974Z,64.60
2017-04-30T20:52:50.474Z,64.60
2017-04-30T20:55:18.211Z,64.60
2017-04-30T20:57:46.691Z,64.60
2017-04-30T21:00:15.171Z,64.60
2017-04-30T21:02:43.636Z,64.60
2017-04-30T21:05:11.389Z,64.80
2017-04-30T21:07:39.106Z,64.60
2017-04-30T21:10:06.850Z,64.30
2017-04-30T21:12:36.445Z,64.20
2017-04-30T21:15:04.916Z,65.00
2017-04-30T21:17:32.636Z,64.50
2017-04-30T21:20:01.467Z,64.60
2017-04-30T21:22:29.211Z,64.50
2017-04-30T21:24:56.933Z,64.50
2017-04-30T21:27:24.712Z,64.60
2017-04-30T21:29:52.432Z,64.60
2017-04-30T21:32:20.985Z,65.20
2017-04-30T21:34:48.713Z,64.50
2017-04-30T21:37:16.449Z,64.40
2017-04-30T21:39:44.908Z,64.40
2017-04-30T21:42:12.627Z,64.30
2017-04-30T21:44:41.620Z,64.30
2017-04-30T21:47:09.343Z,64.20
2017-04-30T21:49:37.816Z,64.10
2017-04-30T21:52:05.537Z,64.00
2017-04-30T21:54:33.260Z,63.90
2017-04-30T21:57:01.732Z,63.60
2017-04-30T21:59:30.279Z,64.00
2017-04-30T22:01:58.007Z,63.70
2017-04-30T22:04:25.738Z,63.70
2017-04-30T22:06:54.235Z,63.50
2017-04-30T22:09:21.970Z,63.40
2017-04-30T22:11:49.689Z,63.10
2017-04-30T22:14:17.405Z,63.00
2017-04-30T22:16:45.888Z,62.70
2017-04-30T22:19:14.360Z,62.80
2017-04-30T22:21:42.080Z,61.90
2017-04-30T22:24:09.800Z,62.10
2017-04-30T22:26:38.272Z,62.40
2017-04-30T22:29:06.741Z,61.70
2017-04-30T22:31:34.465Z,61.70
2017-04-30T22:34:02.240Z,61.70
2017-04-30T22:36:30.910Z,61.70
2017-04-30T22:38:58.633Z,61.70
2017-04-30T22:41:27.095Z,61.70
2017-04-30T22:43:56.353Z,61.70
2017-04-30T22:46:24.075Z,61.70
2017-04-30T22:48:52.538Z,61.70
2017-04-30T22:51:20.283Z,61.70
2017-04-30T22:53:48.008Z,61.60
2017-04-30T22:56:15.756Z,61.70
2017-04-30T22:58:45.345Z,61.60
2017-04-30T23:01:13.803Z,61.60
2017-04-30T23:03:41.524Z,61.50
2017-04-30T23:06:10.370Z,61.50
2017-04-30T23:08:38.092Z,61.60
2017-04-30T23:11:06.548Z,61.60
2017-04-30T23:13:34.321Z,61.50
2017-04-30T23:16:02.784Z,62.00
2017-04-30T23:18:30.525Z,61.50
2017-04-30T23:20:58.841Z,61.50
2017-04-30T23:23:26.565Z,61.50
2017-04-30T23:25:54.286Z,61.50
2017-04-30T23:28:22.784Z,61.70
2017-04-30T23:30:50.518Z,61.50
2017-04-30T23:33:18.241Z,61.60
2017-04-30T23:35:46.924Z,61.50
2017-04-30T23:38:15.395Z,61.50
2017-04-30T23:40:43.116Z,61.40
2017-04-30T23:43:11.816Z,61.40
2017-04-30T23:45:39.536Z,61.50
2017-04-30T23:48:07.260Z,61.40
2017-04-30T23:50:35.004Z,61.40
2017-04-30T23:53:02.756Z,61.30
2017-04-30T23:55:30.489Z,61.20
2017-04-30T23:57:58.236Z,61.50
